createdAt,value
2018-04-11T00:00:51.937Z,2.87
2018-04-11T00:03:18.365Z,4.12
2018-04-11T00:05:44.782Z,1.70
2018-04-11T00:08:11.222Z,1.55
2018-04-11T00:10:37.674Z,1.58
2018-04-11T00:13:04.074Z,1.77
2018-04-11T00:15:30.460Z,2.25
2018-04-11T00:17:56.861Z,2.65
2018-04-11T00:20:23.255Z,3.20
2018-04-11T00:22:49.706Z,2.83
2018-04-11T00:25:16.137Z,1.35
2018-04-11T00:27:42.565Z,3.08
2018-04-11T00:30:08.968Z,1.58
2018-04-11T00:32:35.367Z,2.17
2018-04-11T00:35:01.758Z,3.17
2018-04-11T00:37:28.173Z,2.55
2018-04-11T00:39:54.588Z,2.53
2018-04-11T00:42:20.990Z,2.20
2018-04-11T00:44:48.171Z,1.40
2018-04-11T00:47:14.595Z,2.62
2018-04-11T00:49:41.727Z,2.30
2018-04-11T00:52:08.918Z,2.17
2018-04-11T00:54:35.339Z,4.93
2018-04-11T00:57:01.738Z,1.48
2018-04-11T00:59:28.890Z,1.42
2018-04-11T01:01:56.009Z,2.28
2018-04-11T01:04:22.381Z,1.92
2018-04-11T01:06:48.768Z,2.05
2018-04-11T01:09:15.171Z,4.15
2018-04-11T01:11:41.593Z,3.58
2018-04-11T01:14:08.044Z,4.07
2018-04-11T01:16:34.444Z,2.33
2018-04-11T01:19:00.848Z,1.90
2018-04-11T01:21:28.027Z,2.37
2018-04-11T01:23:54.437Z,1.60
2018-04-11T01:26:20.824Z,2.35
2018-04-11T01:28:47.237Z,2.12
2018-04-11T01:31:13.639Z,1.52
2018-04-11T01:33:40.032Z,1.58
2018-04-11T01:36:06.424Z,2.20
2018-04-11T01:38:32.845Z,1.87
2018-04-11T01:40:59.232Z,3.00
2018-04-11T01:43:25.674Z,2.60
2018-04-11T01:45:52.081Z,2.78
2018-04-11T01:48:18.726Z,2.25
2018-04-11T01:50:45.217Z,1.83
2018-04-11T01:53:12.436Z,3.12
2018-04-11T01:55:38.891Z,3.72
2018-04-11T01:58:05.419Z,4.03
2018-04-11T02:00:31.825Z,2.97
2018-04-11T02:02:58.213Z,3.85
2018-04-11T02:05:24.680Z,2.47
2018-04-11T02:07:51.048Z,3.80
2018-04-11T02:10:17.503Z,4.87
2018-04-11T02:12:43.985Z,3.22
2018-04-11T02:15:11.158Z,6.05
2018-04-11T02:17:38.323Z,3.35
2018-04-11T02:20:04.824Z,3.65
2018-04-11T02:22:31.997Z,3.30
2018-04-11T02:24:58.426Z,3.03
2018-04-11T02:27:24.858Z,3.10
2018-04-11T02:29:51.281Z,7.10
2018-04-11T02:32:17.707Z,4.40
2018-04-11T02:34:44.873Z,9.43
2018-04-11T02:37:11.284Z,8.02
2018-04-11T02:39:38.444Z,3.70
2018-04-11T02:42:04.851Z,3.70
2018-04-11T02:44:32.072Z,5.47
2018-04-11T02:46:58.566Z,6.32
2018-04-11T02:49:25.032Z,3.70
2018-04-11T02:51:51.508Z,6.15
2018-04-11T02:54:17.864Z,4.65
2018-04-11T02:56:44.275Z,5.37
2018-04-11T03:01:43.719Z,5.12
2018-04-11T03:04:10.133Z,2.95
2018-04-11T03:06:36.507Z,3.10
2018-04-11T03:09:02.976Z,5.60
2018-04-11T03:11:30.112Z,5.28
2018-04-11T03:13:56.625Z,2.50
2018-04-11T03:16:23.090Z,4.35
2018-04-11T03:18:49.517Z,2.70
2018-04-11T03:21:16.638Z,4.57
2018-04-11T03:23:43.039Z,4.40
2018-04-11T03:26:09.545Z,4.95
2018-04-11T03:28:35.964Z,3.67
2018-04-11T03:31:03.121Z,3.80
2018-04-11T03:33:29.574Z,6.00
2018-04-11T03:35:56.704Z,4.90
2018-04-11T03:38:23.102Z,3.92
2018-04-11T03:40:49.572Z,4.65
2018-04-11T03:43:15.974Z,7.53
2018-04-11T03:45:43.121Z,5.62
2018-04-11T03:48:10.274Z,4.93
2018-04-11T03:50:37.452Z,5.50
2018-04-11T03:53:03.896Z,3.97
2018-04-11T03:55:30.323Z,6.30
2018-04-11T03:57:56.752Z,3.35
2018-04-11T04:00:23.198Z,4.50
2018-04-11T04:02:49.578Z,6.00
2018-04-11T04:05:16.771Z,3.67
2018-04-11T04:07:43.252Z,3.65
2018-04-11T04:10:10.394Z,8.02
2018-04-11T04:12:36.837Z,4.95
2018-04-11T04:15:21.659Z,7.62
2018-04-11T04:18:06.570Z,12.10
2018-04-11T04:20:35.919Z,5.00
2018-04-11T04:23:02.364Z,6.12
2018-04-11T04:25:28.815Z,6.15
2018-04-11T04:27:55.212Z,9.90
2018-04-11T04:30:21.645Z,5.00
2018-04-11T04:32:48.122Z,4.15
2018-04-11T04:35:14.741Z,7.37
2018-04-11T04:37:41.927Z,6.65
2018-04-11T04:40:08.360Z,7.43
2018-04-11T04:42:34.764Z,5.18
2018-04-11T04:45:01.152Z,5.45
2018-04-11T04:47:27.660Z,4.82
2018-04-11T04:49:54.937Z,3.97
2018-04-11T04:52:21.394Z,6.65
2018-04-11T04:54:48.604Z,7.32
2018-04-11T04:57:15.000Z,5.65
2018-04-11T04:59:42.237Z,7.95
2018-04-11T05:02:08.641Z,5.43
2018-04-11T05:04:35.155Z,6.53
2018-04-11T05:07:01.559Z,5.10
2018-04-11T05:09:27.979Z,14.02
2018-04-11T05:11:54.417Z,5.22
2018-04-11T05:14:21.629Z,6.05
2018-04-11T05:16:48.060Z,5.57
2018-04-11T05:19:14.459Z,6.55
2018-04-11T05:21:40.926Z,10.10
2018-04-11T05:24:07.356Z,6.07
2018-04-11T05:26:33.778Z,12.23
2018-04-11T05:29:00.171Z,10.30
2018-04-11T05:31:26.624Z,7.80
2018-04-11T05:33:53.098Z,7.45
2018-04-11T05:36:19.563Z,6.28
2018-04-11T05:38:46.091Z,9.60
2018-04-11T05:41:12.530Z,6.12
2018-04-11T05:43:39.069Z,6.53
2018-04-11T05:46:05.607Z,7.78
2018-04-11T05:48:32.091Z,7.37
2018-04-11T05:50:58.471Z,8.32
2018-04-11T05:53:24.931Z,10.25
2018-04-11T05:55:51.335Z,7.57
2018-04-11T05:58:17.748Z,10.30
2018-04-11T06:00:44.924Z,11.40
2018-04-11T06:03:11.456Z,8.98
2018-04-11T06:05:37.943Z,8.50
2018-04-11T06:08:04.426Z,8.65
2018-04-11T06:10:30.996Z,13.23
2018-04-11T06:12:57.475Z,11.02
2018-04-11T06:15:23.968Z,7.62
2018-04-11T06:17:50.375Z,8.65
2018-04-11T06:20:16.846Z,6.55
2018-04-11T06:22:43.980Z,15.10
2018-04-11T06:25:10.399Z,12.18
2018-04-11T06:27:36.791Z,7.32
2018-04-11T06:30:03.238Z,12.25
2018-04-11T06:32:29.665Z,10.50
2018-04-11T06:34:56.076Z,12.90
2018-04-11T06:37:22.495Z,6.90
2018-04-11T06:39:48.979Z,7.40
2018-04-11T06:42:15.385Z,10.65
2018-04-11T06:44:41.772Z,8.45
2018-04-11T06:47:09.005Z,8.93
2018-04-11T06:49:35.399Z,10.27
2018-04-11T06:52:01.921Z,7.10
2018-04-11T06:54:28.378Z,6.70
2018-04-11T06:56:55.767Z,9.32
2018-04-11T06:59:22.231Z,8.75
2018-04-11T07:01:49.387Z,8.77
2018-04-11T07:04:15.866Z,13.20
2018-04-11T07:06:42.300Z,6.90
2018-04-11T07:09:09.417Z,5.47
2018-04-11T07:11:35.839Z,10.32
2018-04-11T07:14:02.268Z,7.62
2018-04-11T07:16:28.693Z,15.05
2018-04-11T07:18:55.088Z,8.25
2018-04-11T07:21:21.495Z,7.07
2018-04-11T07:23:47.956Z,11.05
2018-04-11T07:26:15.149Z,5.85
2018-04-11T07:28:41.630Z,12.23
2018-04-11T07:31:08.023Z,6.85
2018-04-11T07:33:34.448Z,7.20
2018-04-11T07:36:00.966Z,5.18
2018-04-11T07:38:27.436Z,5.57
2018-04-11T07:40:53.929Z,5.60
2018-04-11T07:43:20.348Z,6.35
2018-04-11T07:45:46.869Z,4.50
2018-04-11T07:48:13.349Z,9.38
2018-04-11T07:50:39.852Z,9.98
2018-04-11T07:53:06.280Z,7.25
2018-04-11T07:55:32.696Z,7.82
2018-04-11T07:57:59.128Z,6.45
2018-04-11T08:00:25.588Z,7.22
2018-04-11T08:02:52.743Z,5.30
2018-04-11T08:05:19.151Z,10.02
2018-04-11T08:07:45.581Z,6.53
2018-04-11T08:10:12.784Z,6.15
2018-04-11T08:12:39.230Z,18.75
2018-04-11T08:15:05.698Z,8.95
2018-04-11T08:17:32.849Z,8.25
2018-04-11T08:20:00.176Z,6.60
2018-04-11T08:22:26.672Z,8.80
2018-04-11T08:24:53.090Z,11.73
2018-04-11T08:27:19.477Z,8.95
2018-04-11T08:29:45.978Z,7.05
2018-04-11T08:32:12.511Z,6.97
2018-04-11T08:34:38.928Z,8.95
2018-04-11T08:37:05.387Z,14.70
2018-04-11T08:39:31.832Z,14.77
2018-04-11T08:41:58.322Z,9.32
2018-04-11T08:44:24.717Z,9.70
2018-04-11T08:46:51.252Z,17.90
2018-04-11T08:49:17.685Z,9.25
2018-04-11T08:51:44.870Z,12.63
2018-04-11T08:54:11.304Z,9.93
2018-04-11T08:56:37.768Z,12.55
2018-04-11T08:59:04.236Z,7.85
2018-04-11T09:01:31.342Z,5.47
2018-04-11T09:03:57.863Z,6.50
2018-04-11T09:06:24.297Z,6.45
2018-04-11T09:08:50.741Z,9.68
2018-04-11T09:11:17.167Z,8.50
2018-04-11T09:13:43.579Z,5.85
2018-04-11T09:16:09.972Z,8.20
2018-04-11T09:18:36.372Z,8.10
2018-04-11T09:21:02.792Z,15.07
2018-04-11T09:23:29.252Z,8.13
2018-04-11T09:25:55.629Z,10.30
2018-04-11T09:28:22.105Z,7.25
2018-04-11T09:30:49.278Z,6.07
2018-04-11T09:33:15.797Z,5.20
2018-04-11T09:35:42.942Z,6.45
2018-04-11T09:38:09.367Z,10.02
2018-04-11T09:40:35.840Z,7.43
2018-04-11T09:43:02.239Z,6.18
2018-04-11T09:45:28.773Z,8.13
2018-04-11T09:47:55.537Z,5.12
2018-04-11T09:50:22.017Z,3.95
2018-04-11T09:52:48.456Z,6.10
2018-04-11T09:55:14.888Z,5.37
2018-04-11T09:57:41.284Z,5.22
2018-04-11T10:00:08.497Z,2.50
2018-04-11T10:02:35.686Z,8.57
2018-04-11T10:05:02.160Z,3.72
2018-04-11T10:07:28.599Z,2.53
2018-04-11T10:09:55.100Z,2.55
2018-04-11T10:12:21.527Z,4.40
2018-04-11T10:14:47.919Z,2.78
2018-04-11T10:17:14.990Z,4.43
2018-04-11T10:19:41.518Z,3.90
2018-04-11T10:22:07.987Z,3.50
2018-04-11T10:24:34.419Z,4.55
2018-04-11T10:27:00.847Z,3.35
2018-04-11T10:29:27.273Z,5.00
2018-04-11T10:31:53.717Z,5.28
2018-04-11T10:34:20.137Z,2.80
2018-04-11T10:36:46.589Z,2.78
2018-04-11T10:39:13.715Z,2.33
2018-04-11T10:41:40.167Z,3.25
2018-04-11T10:44:06.687Z,4.07
2018-04-11T10:46:33.106Z,3.37
2018-04-11T10:48:59.550Z,3.25
2018-04-11T10:51:25.984Z,1.27
2018-04-11T10:53:52.520Z,2.55
2018-04-11T10:56:18.936Z,2.80
2018-04-11T10:58:45.339Z,4.22
2018-04-11T11:01:11.780Z,3.70
2018-04-11T11:03:38.226Z,3.60
2018-04-11T11:06:04.692Z,2.40
2018-04-11T11:08:31.109Z,2.72
2018-04-11T11:10:57.576Z,4.97
2018-04-11T11:13:24.856Z,7.93
2018-04-11T11:18:24.345Z,5.47
2018-04-11T11:20:57.508Z,3.55
2018-04-11T11:23:23.954Z,4.35
2018-04-11T11:25:50.443Z,2.62
2018-04-11T11:28:16.940Z,2.50
2018-04-11T11:30:44.097Z,3.08
2018-04-11T11:33:10.521Z,2.78
2018-04-11T11:35:37.004Z,2.58
2018-04-11T11:38:03.471Z,2.05
2018-04-11T11:40:29.901Z,2.70
2018-04-11T11:42:56.304Z,3.55
2018-04-11T11:45:22.751Z,5.07
2018-04-11T11:47:49.187Z,1.65
2018-04-11T11:50:15.668Z,8.52
2018-04-11T11:52:42.060Z,3.62
2018-04-11T11:55:08.446Z,3.40
2018-04-11T11:57:34.876Z,2.55
2018-04-11T12:00:01.297Z,4.20
2018-04-11T12:02:28.467Z,4.60
2018-04-11T12:04:54.937Z,4.05
2018-04-11T12:07:21.393Z,3.30
2018-04-11T12:09:47.805Z,5.82
2018-04-11T12:12:14.284Z,3.00
2018-04-11T12:14:40.760Z,5.73
2018-04-11T12:17:07.952Z,8.37
2018-04-11T12:19:34.345Z,5.03
2018-04-11T12:22:02.472Z,8.70
2018-04-11T12:24:28.888Z,1.37
2018-04-11T12:26:55.333Z,1.30
2018-04-11T12:29:21.739Z,1.57
2018-04-11T12:31:48.197Z,1.33
2018-04-11T12:34:14.648Z,1.77
2018-04-11T12:36:41.098Z,1.93
2018-04-11T12:39:08.344Z,3.17
2018-04-11T12:41:34.977Z,2.00
2018-04-11T12:44:01.407Z,1.20
2018-04-11T12:46:27.821Z,2.50
2018-04-11T12:48:54.502Z,1.50
2018-04-11T12:51:20.990Z,2.50
2018-04-11T12:53:47.468Z,1.20
2018-04-11T12:56:13.963Z,2.33
2018-04-11T12:58:41.181Z,2.90
2018-04-11T13:01:07.695Z,2.23
2018-04-11T13:03:34.147Z,3.40
2018-04-11T13:06:00.641Z,2.87
2018-04-11T13:08:27.068Z,4.60
2018-04-11T13:10:54.222Z,1.17
2018-04-11T13:13:20.701Z,2.10
2018-04-11T13:15:47.138Z,1.53
2018-04-11T13:18:13.549Z,0.90
2018-04-11T13:20:40.029Z,1.30
2018-04-11T13:23:06.524Z,2.20
2018-04-11T13:25:32.954Z,1.77
2018-04-11T13:28:00.341Z,2.60
2018-04-11T13:30:26.753Z,1.20
2018-04-11T13:32:53.166Z,1.10
2018-04-11T13:35:19.564Z,1.87
2018-04-11T13:37:45.985Z,1.53
2018-04-11T13:40:12.419Z,9.77
2018-04-11T13:42:39.625Z,3.80
2018-04-11T13:45:06.087Z,1.63
2018-04-11T13:47:32.544Z,2.67
2018-04-11T13:49:59.739Z,2.87
2018-04-11T13:52:26.170Z,3.20
2018-04-11T13:54:52.639Z,2.20
2018-04-11T13:57:19.048Z,4.20
2018-04-11T13:59:45.519Z,3.30
2018-04-11T14:02:12.721Z,1.50
2018-04-11T14:04:39.247Z,2.83
2018-04-11T14:07:05.678Z,1.90
2018-04-11T14:09:32.198Z,1.53
2018-04-11T14:11:58.649Z,8.13
2018-04-11T14:14:25.157Z,2.10
2018-04-11T14:16:52.463Z,2.93
2018-04-11T14:19:18.928Z,1.70
2018-04-11T14:21:45.498Z,1.23
2018-04-11T14:24:12.037Z,1.87
2018-04-11T14:26:38.601Z,7.27
2018-04-11T14:29:05.831Z,1.20
2018-04-11T14:31:32.302Z,1.90
2018-04-11T14:33:58.710Z,1.83
2018-04-11T14:36:25.989Z,2.50
2018-04-11T14:38:52.444Z,1.77
2018-04-11T14:41:18.966Z,2.60
2018-04-11T14:43:45.444Z,2.97
2018-04-11T14:46:11.889Z,1.63
2018-04-11T14:48:38.385Z,3.00
2018-04-11T14:51:04.872Z,6.90
2018-04-11T14:53:31.324Z,2.10
2018-04-11T14:55:57.729Z,2.13
2018-04-11T14:58:24.177Z,3.27
2018-04-11T15:00:50.570Z,2.33
2018-04-11T15:03:17.044Z,3.10
2018-04-11T15:05:44.206Z,3.07
2018-04-11T15:08:10.708Z,3.93
2018-04-11T15:10:37.257Z,2.17
2018-04-11T15:13:04.434Z,1.47
2018-04-11T15:15:30.857Z,2.57
2018-04-11T15:17:57.328Z,2.57
2018-04-11T15:20:23.737Z,3.47
2018-04-11T15:22:50.097Z,3.13
2018-04-11T15:25:16.537Z,4.20
2018-04-11T15:27:42.980Z,3.67
2018-04-11T15:30:09.432Z,2.63
2018-04-11T15:32:35.872Z,3.20
2018-04-11T15:35:02.454Z,3.17
2018-04-11T15:37:28.916Z,3.50
2018-04-11T15:39:55.387Z,2.70
2018-04-11T15:42:21.805Z,2.47
2018-04-11T15:44:48.318Z,3.00
2018-04-11T15:47:14.745Z,5.20
2018-04-11T15:49:41.250Z,7.20
2018-04-11T15:52:07.725Z,6.50
2018-04-11T15:54:34.265Z,6.13
2018-04-11T15:57:01.470Z,4.50
2018-04-11T15:59:27.998Z,3.53
2018-04-11T16:01:54.465Z,4.40
2018-04-11T16:04:21.627Z,4.77
2018-04-11T16:06:48.193Z,5.17
2018-04-11T16:09:14.659Z,5.73
2018-04-11T16:11:41.130Z,5.50
2018-04-11T16:14:07.619Z,5.53
2018-04-11T16:16:34.065Z,3.10
2018-04-11T16:19:00.505Z,4.60
2018-04-11T16:21:27.089Z,3.73
2018-04-11T16:23:53.546Z,4.23
2018-04-11T16:26:20.032Z,4.47
2018-04-11T16:28:46.453Z,8.63
2018-04-11T16:31:13.002Z,4.30
2018-04-11T16:33:39.529Z,3.30
2018-04-11T16:36:06.113Z,3.10
2018-04-11T16:38:32.573Z,4.80
2018-04-11T16:40:59.012Z,4.87
2018-04-11T16:43:26.400Z,4.40
2018-04-11T16:45:52.984Z,4.77
2018-04-11T16:48:20.312Z,2.97
2018-04-11T16:50:46.958Z,4.47
2018-04-11T16:53:13.469Z,3.40
2018-04-11T16:55:39.956Z,2.27
2018-04-11T16:58:06.407Z,3.80
2018-04-11T17:00:32.844Z,3.60
2018-04-11T17:02:59.464Z,3.80
2018-04-11T17:05:26.695Z,7.27
2018-04-11T17:07:53.202Z,10.83
2018-04-11T17:10:19.840Z,3.93
2018-04-11T17:12:46.377Z,6.40
2018-04-11T17:15:12.942Z,3.47
2018-04-11T17:17:39.430Z,5.60
2018-04-11T17:20:05.953Z,5.13
2018-04-11T17:22:50.750Z,4.40
2018-04-11T17:28:46.006Z,6.07
2018-04-11T17:31:31.189Z,4.80
2018-04-11T17:33:58.365Z,4.20
2018-04-11T17:36:25.755Z,4.63
2018-04-11T17:38:52.225Z,8.30
2018-04-11T17:41:19.850Z,4.13
2018-04-11T17:43:46.363Z,6.03
2018-04-11T17:46:12.887Z,5.90
2018-04-11T17:48:39.536Z,9.13
2018-04-11T17:51:06.065Z,5.87
2018-04-11T17:53:32.588Z,7.10
2018-04-11T17:55:59.122Z,5.90
2018-04-11T17:58:25.615Z,9.30
2018-04-11T18:00:52.240Z,5.83
2018-04-11T18:03:18.820Z,5.27
2018-04-11T18:05:45.276Z,4.83
2018-04-11T18:08:11.813Z,6.90
2018-04-11T18:10:38.392Z,5.50
2018-04-11T18:13:04.884Z,7.13
2018-04-11T18:15:31.315Z,4.23
2018-04-11T18:17:57.845Z,4.30
2018-04-11T18:20:24.319Z,9.17
2018-04-11T18:22:50.795Z,6.17
2018-04-11T18:25:17.297Z,6.17
2018-04-11T18:27:43.817Z,5.70
2018-04-11T18:30:10.248Z,6.20
2018-04-11T18:32:37.478Z,3.90
2018-04-11T18:35:04.077Z,6.67
2018-04-11T18:37:30.502Z,5.30
2018-04-11T18:39:56.979Z,5.73
2018-04-11T18:42:23.444Z,6.80
2018-04-11T18:44:50.085Z,5.53
2018-04-11T18:47:16.642Z,6.63
2018-04-11T18:49:43.218Z,5.07
2018-04-11T18:52:09.722Z,7.43
2018-04-11T18:54:36.354Z,7.03
2018-04-11T18:57:02.857Z,5.67
2018-04-11T18:59:29.382Z,6.07
2018-04-11T19:01:55.849Z,6.93
2018-04-11T19:04:22.456Z,7.67
2018-04-11T19:06:48.926Z,7.97
2018-04-11T19:09:15.488Z,7.90
2018-04-11T19:11:42.091Z,6.57
2018-04-11T19:14:08.597Z,7.00
2018-04-11T19:16:35.464Z,10.00
2018-04-11T19:19:01.976Z,8.23
2018-04-11T19:21:28.565Z,7.17
2018-04-11T19:23:55.873Z,6.40
2018-04-11T19:26:22.426Z,8.30
2018-04-11T19:28:48.968Z,11.53
2018-04-11T19:31:15.582Z,6.27
2018-04-11T19:33:42.027Z,6.17
2018-04-11T19:36:08.534Z,7.93
2018-04-11T19:38:35.073Z,7.27
2018-04-11T19:41:01.639Z,7.45
2018-04-11T19:43:28.269Z,7.90
2018-04-11T19:45:55.598Z,8.70
2018-04-11T19:48:22.248Z,9.23
2018-04-11T19:50:48.763Z,7.17
2018-04-11T19:53:16.068Z,11.45
2018-04-11T19:55:43.385Z,6.60
2018-04-11T19:58:10.036Z,5.40
2018-04-11T20:00:36.692Z,7.62
2018-04-11T20:03:03.979Z,7.40
2018-04-11T20:05:30.652Z,9.93
2018-04-11T20:07:57.307Z,8.07
2018-04-11T20:10:24.562Z,6.43
2018-04-11T20:12:51.075Z,7.93
2018-04-11T20:15:17.598Z,11.50
2018-04-11T20:17:44.280Z,9.45
2018-04-11T20:20:11.629Z,6.93
2018-04-11T20:22:38.084Z,12.02
2018-04-11T20:25:05.627Z,8.98
2018-04-11T20:27:32.944Z,10.80
2018-04-11T20:29:59.487Z,10.23
2018-04-11T20:32:25.958Z,7.07
2018-04-11T20:34:52.414Z,7.55
2018-04-11T20:37:18.942Z,8.30
2018-04-11T20:39:45.458Z,8.38
2018-04-11T20:42:11.933Z,10.90
2018-04-11T20:44:38.410Z,6.82
2018-04-11T20:47:04.862Z,6.35
2018-04-11T20:49:31.348Z,8.13
2018-04-11T20:54:30.953Z,9.82
2018-04-11T20:56:57.506Z,9.50
2018-04-11T20:59:23.951Z,9.77
2018-04-11T21:01:50.410Z,10.43
2018-04-11T21:04:17.064Z,8.77
2018-04-11T21:06:43.554Z,12.40
2018-04-11T21:09:10.061Z,13.62
2018-04-11T21:11:36.590Z,10.65
2018-04-11T21:14:03.092Z,12.77
2018-04-11T21:16:29.592Z,9.48
2018-04-11T21:18:57.381Z,11.93
2018-04-11T21:21:23.843Z,8.85
2018-04-11T21:23:50.346Z,9.00
2018-04-11T21:26:16.982Z,9.77
2018-04-11T21:28:44.267Z,8.52
2018-04-11T21:31:10.846Z,8.80
2018-04-11T21:33:38.128Z,12.10
2018-04-11T21:36:04.617Z,8.77
2018-04-11T21:38:31.387Z,9.60
2018-04-11T21:40:58.077Z,10.68
2018-04-11T21:43:24.618Z,11.20
2018-04-11T21:45:51.144Z,7.85
2018-04-11T21:48:17.583Z,8.02
2018-04-11T21:50:44.040Z,9.63
2018-04-11T21:53:10.509Z,8.48
2018-04-11T21:55:37.150Z,8.15
2018-04-11T21:58:03.763Z,13.07
2018-04-11T22:00:30.412Z,10.23
2018-04-11T22:02:56.940Z,9.95
2018-04-11T22:05:23.528Z,10.57
2018-04-11T22:07:49.971Z,9.25
2018-04-11T22:10:16.518Z,8.77
2018-04-11T22:12:43.008Z,9.55
2018-04-11T22:15:09.496Z,9.55
2018-04-11T22:17:36.278Z,14.18
2018-04-11T22:20:02.773Z,13.93
2018-04-11T22:22:29.995Z,11.55
2018-04-11T22:24:56.484Z,9.05
2018-04-11T22:27:23.092Z,8.70
2018-04-11T22:29:49.526Z,10.57
2018-04-11T22:32:16.748Z,8.30
2018-04-11T22:34:43.120Z,8.85
2018-04-11T22:37:09.645Z,7.60
2018-04-11T22:39:36.800Z,8.85
2018-04-11T22:42:03.436Z,6.82
2018-04-11T22:44:29.860Z,7.85
2018-04-11T22:46:56.398Z,8.65
2018-04-11T22:49:22.921Z,9.80
2018-04-11T22:51:49.316Z,10.68
2018-04-11T22:54:16.591Z,9.95
2018-04-11T22:56:43.042Z,9.10
2018-04-11T22:59:09.465Z,9.40
2018-04-11T23:01:36.629Z,9.68
2018-04-11T23:04:03.825Z,7.97
2018-04-11T23:06:30.238Z,9.10
2018-04-11T23:08:57.589Z,9.48
2018-04-11T23:11:24.020Z,8.45
2018-04-11T23:13:50.482Z,13.77
2018-04-11T23:16:17.036Z,8.65
2018-04-11T23:18:43.533Z,8.25
2018-04-11T23:21:09.958Z,9.60
2018-04-11T23:23:36.513Z,11.70
2018-04-11T23:26:03.063Z,7.43
2018-04-11T23:28:29.438Z,13.27
2018-04-11T23:30:55.853Z,11.25
2018-04-11T23:33:22.282Z,7.05
2018-04-11T23:35:48.721Z,8.70
2018-04-11T23:38:15.232Z,11.85
2018-04-11T23:40:41.661Z,8.00
2018-04-11T23:43:08.100Z,11.52
2018-04-11T23:45:34.501Z,10.98
2018-04-11T23:48:01.031Z,7.00
2018-04-11T23:50:27.411Z,8.10
2018-04-11T23:52:54.552Z,14.50
2018-04-11T23:55:22.086Z,10.80
2018-04-11T23:57:49.228Z,12.70
